createdAt,value
2023-04-25T00:00:34.368Z,6.82
2023-04-25T00:01:16.073Z,4.70
2023-04-25T00:01:58.582Z,3.65
2023-04-25T00:02:40.294Z,3.10
2023-04-25T00:03:22.265Z,3.17
2023-04-25T00:04:06.959Z,2.97
2023-04-25T00:04:50.497Z,3.38
2023-04-25T00:05:32.724Z,3.08
2023-04-25T00:06:15.279Z,2.72
2023-04-25T00:06:56.967Z,3.40
2023-04-25T00:07:39.380Z,3.30
2023-04-25T00:08:21.270Z,3.45
2023-04-25T00:09:11.140Z,3.10
2023-04-25T00:09:52.817Z,3.10
2023-04-25T00:10:34.483Z,3.35
2023-04-25T00:11:16.084Z,3.22
2023-04-25T00:11:57.792Z,2.50
2023-04-25T00:12:39.951Z,2.80
2023-04-25T00:13:22.477Z,2.83
2023-04-25T00:14:05.186Z,3.17
2023-04-25T00:14:47.430Z,3.50
2023-04-25T00:15:31.588Z,3.45
2023-04-25T00:16:15.861Z,3.10
2023-04-25T00:16:57.513Z,3.28
2023-04-25T00:17:39.459Z,3.10
2023-04-25T00:18:21.245Z,3.00
2023-04-25T00:19:03.268Z,2.92
2023-04-25T00:19:47.025Z,2.90
2023-04-25T00:20:28.643Z,3.40
2023-04-25T00:21:10.797Z,3.03
2023-04-25T00:21:52.392Z,3.47
2023-04-25T00:22:35.652Z,3.10
2023-04-25T00:23:20.695Z,3.40
2023-04-25T00:24:02.323Z,3.00
2023-04-25T00:24:44.104Z,2.85
2023-04-25T00:25:25.885Z,3.10
2023-04-25T00:26:07.459Z,3.25
2023-04-25T00:26:49.008Z,3.22
2023-04-25T00:27:30.672Z,3.17
2023-04-25T00:28:13.187Z,3.17
2023-04-25T00:28:54.774Z,3.00
2023-04-25T00:29:36.336Z,3.05
2023-04-25T00:30:17.953Z,2.90
2023-04-25T00:30:59.600Z,2.90
2023-04-25T00:31:41.346Z,3.22
2023-04-25T00:32:23.130Z,3.35
2023-04-25T00:33:04.922Z,3.33
2023-04-25T00:33:47.278Z,3.65
2023-04-25T00:34:28.877Z,3.10
2023-04-25T00:35:11.050Z,3.25
2023-04-25T00:35:52.669Z,3.05
2023-04-25T00:36:34.345Z,3.63
2023-04-25T00:37:16.090Z,3.53
2023-04-25T00:37:57.719Z,3.60
2023-04-25T00:38:39.414Z,3.85
2023-04-25T00:39:21.026Z,3.40
2023-04-25T00:40:03.466Z,3.05
2023-04-25T00:40:45.209Z,3.10
2023-04-25T00:41:28.059Z,3.08
2023-04-25T00:42:09.709Z,3.28
2023-04-25T00:42:53.173Z,3.63
2023-04-25T00:43:37.038Z,3.60
2023-04-25T00:44:19.315Z,3.40
2023-04-25T00:45:01.755Z,3.35
2023-04-25T00:45:44.285Z,2.83
2023-04-25T00:46:25.937Z,3.10
2023-04-25T00:47:08.193Z,3.33
2023-04-25T00:47:50.086Z,3.30
2023-04-25T00:48:31.810Z,3.10
2023-04-25T00:49:16.477Z,2.88
2023-04-25T00:49:58.129Z,3.00
2023-04-25T00:50:39.867Z,2.92
2023-04-25T00:51:22.624Z,3.00
2023-04-25T00:52:05.204Z,3.17
2023-04-25T00:52:47.197Z,3.35
2023-04-25T00:53:29.372Z,3.10
2023-04-25T00:54:12.974Z,2.90
2023-04-25T00:54:54.984Z,3.38
2023-04-25T00:55:37.157Z,2.75
2023-04-25T00:56:18.958Z,2.90
2023-04-25T00:57:01.984Z,3.00
2023-04-25T00:57:44.074Z,2.97
2023-04-25T00:58:25.968Z,2.53
2023-04-25T00:59:08.412Z,3.00
2023-04-25T00:59:52.129Z,3.20
2023-04-25T01:00:34.154Z,3.03
2023-04-25T01:01:15.890Z,3.10
2023-04-25T01:01:57.972Z,3.40
2023-04-25T01:02:43.128Z,3.42
2023-04-25T01:03:25.616Z,2.80
2023-04-25T01:04:07.942Z,2.97
2023-04-25T01:04:50.357Z,2.75
2023-04-25T01:05:32.530Z,2.90
2023-04-25T01:06:14.172Z,3.05
2023-04-25T01:06:56.933Z,2.83
2023-04-25T01:07:39.218Z,2.70
2023-04-25T01:08:24.442Z,2.50
2023-04-25T01:09:06.353Z,3.17
2023-04-25T01:09:48.068Z,2.50
2023-04-25T01:10:29.670Z,2.60
2023-04-25T01:11:11.307Z,2.80
2023-04-25T01:11:53.493Z,2.55
2023-04-25T01:12:35.419Z,3.10
2023-04-25T01:13:17.058Z,3.08
2023-04-25T01:13:59.349Z,2.80
2023-04-25T01:14:41.002Z,3.03
2023-04-25T01:15:22.702Z,2.72
2023-04-25T01:16:04.900Z,3.00
2023-04-25T01:16:47.579Z,2.83
2023-04-25T01:17:30.278Z,2.85
2023-04-25T01:18:13.100Z,2.80
2023-04-25T01:18:55.960Z,2.80
2023-04-25T01:19:37.800Z,2.90
2023-04-25T01:20:23.151Z,2.90
2023-04-25T01:21:09.812Z,3.08
2023-04-25T01:21:52.105Z,3.00
2023-04-25T01:22:34.451Z,3.20
2023-04-25T01:23:16.390Z,2.80
2023-04-25T01:23:58.844Z,2.78
2023-04-25T01:24:40.939Z,3.08
2023-04-25T01:25:23.437Z,3.00
2023-04-25T01:26:05.409Z,3.20
2023-04-25T01:26:50.832Z,2.97
2023-04-25T01:27:37.733Z,3.08
2023-04-25T01:28:20.345Z,2.88
2023-04-25T01:29:02.023Z,3.30
2023-04-25T01:29:43.794Z,2.72
2023-04-25T01:30:28.214Z,2.90
2023-04-25T01:31:10.250Z,2.90
2023-04-25T01:31:53.623Z,3.13
2023-04-25T01:32:39.398Z,3.45
2023-04-25T01:33:22.540Z,3.03
2023-04-25T01:34:04.218Z,3.33
2023-04-25T01:34:45.922Z,2.83
2023-04-25T01:35:27.740Z,2.80
2023-04-25T01:36:10.055Z,3.10
2023-04-25T01:36:53.479Z,3.10
2023-04-25T01:37:35.089Z,3.30
2023-04-25T01:38:16.744Z,3.40
2023-04-25T01:38:58.489Z,3.05
2023-04-25T01:39:40.307Z,2.90
2023-04-25T01:40:26.060Z,3.22
2023-04-25T01:41:07.887Z,3.30
2023-04-25T01:41:50.024Z,2.92
2023-04-25T01:42:33.198Z,2.65
2023-04-25T01:43:15.368Z,2.78
2023-04-25T01:43:57.227Z,2.55
2023-04-25T01:44:38.899Z,2.70
2023-04-25T01:45:21.384Z,2.80
2023-04-25T01:46:03.846Z,2.85
2023-04-25T01:46:45.555Z,2.50
2023-04-25T01:47:27.249Z,2.80
2023-04-25T01:48:11.335Z,2.95
2023-04-25T01:48:53.092Z,3.08
2023-04-25T01:49:34.827Z,2.35
2023-04-25T01:50:18.630Z,3.30
2023-04-25T01:51:00.808Z,3.25
2023-04-25T01:51:45.195Z,3.10
2023-04-25T01:52:26.899Z,2.80
2023-04-25T01:53:10.921Z,3.00
2023-04-25T01:53:53.484Z,3.13
2023-04-25T01:54:35.650Z,2.75
2023-04-25T01:55:17.851Z,2.72
2023-04-25T01:56:14.613Z,2.97
2023-04-25T01:56:58.483Z,2.58
2023-04-25T01:57:40.728Z,2.65
2023-04-25T01:58:23.151Z,3.08
2023-04-25T01:59:22.674Z,2.90
2023-04-25T02:00:30.625Z,2.90
2023-04-25T02:01:12.662Z,3.33
2023-04-25T02:02:00.544Z,2.78
2023-04-25T02:02:46.282Z,2.63
2023-04-25T02:03:45.125Z,3.00
2023-04-25T02:04:35.587Z,3.08
2023-04-25T02:05:18.948Z,2.72
2023-04-25T02:06:00.976Z,2.67
2023-04-25T02:06:43.581Z,2.75
2023-04-25T02:07:27.458Z,2.40
2023-04-25T02:08:09.968Z,2.78
2023-04-25T02:08:51.646Z,2.55
2023-04-25T02:09:33.355Z,2.50
2023-04-25T02:10:19.138Z,2.40
2023-04-25T02:11:19.673Z,2.65
2023-04-25T02:12:21.583Z,2.50
2023-04-25T02:13:21.672Z,2.72
2023-04-25T02:14:19.299Z,2.90
2023-04-25T02:15:07.990Z,2.78
2023-04-25T02:15:58.120Z,2.90
2023-04-25T02:16:40.609Z,2.55
2023-04-25T02:17:22.968Z,2.80
2023-04-25T02:18:07.291Z,3.20
2023-04-25T02:18:49.029Z,2.70
2023-04-25T02:19:30.714Z,3.00
2023-04-25T02:20:12.452Z,2.83
2023-04-25T02:20:55.030Z,3.10
2023-04-25T02:21:36.759Z,2.95
2023-04-25T02:22:19.080Z,2.70
2023-04-25T02:23:01.366Z,2.97
2023-04-25T02:23:43.712Z,3.15
2023-04-25T02:24:25.426Z,3.08
2023-04-25T02:25:07.444Z,3.00
2023-04-25T02:25:49.785Z,3.13
2023-04-25T02:26:31.534Z,3.05
2023-04-25T02:27:13.181Z,2.58
2023-04-25T02:27:54.821Z,2.70
2023-04-25T02:28:36.475Z,2.58
2023-04-25T02:29:19.936Z,2.70
2023-04-25T02:30:02.044Z,2.80
2023-04-25T02:30:43.730Z,3.10
2023-04-25T02:31:25.431Z,3.10
2023-04-25T02:32:07.105Z,2.85
2023-04-25T02:32:48.687Z,2.78
2023-04-25T02:33:30.637Z,3.17
2023-04-25T02:34:13.222Z,3.67
2023-04-25T02:34:55.043Z,3.17
2023-04-25T02:35:36.705Z,2.90
2023-04-25T02:36:18.270Z,3.40
2023-04-25T02:36:59.918Z,3.40
2023-04-25T02:37:41.705Z,3.40
2023-04-25T02:38:23.296Z,3.42
2023-04-25T02:39:05.129Z,3.30
2023-04-25T02:39:46.730Z,3.33
2023-04-25T02:40:28.458Z,3.38
2023-04-25T02:41:10.097Z,3.58
2023-04-25T02:41:52.709Z,3.40
2023-04-25T02:42:34.387Z,3.55
2023-04-25T02:43:16.990Z,3.85
2023-04-25T02:43:58.607Z,3.28
2023-04-25T02:44:40.281Z,3.17
2023-04-25T02:45:22.217Z,3.75
2023-04-25T02:46:05.104Z,3.40
2023-04-25T02:46:46.781Z,3.28
2023-04-25T02:47:28.846Z,3.80
2023-04-25T02:48:10.611Z,3.88
2023-04-25T02:48:52.275Z,4.05
2023-04-25T02:49:33.909Z,4.00
2023-04-25T02:50:15.645Z,3.78
2023-04-25T02:50:57.303Z,4.15
2023-04-25T02:51:38.938Z,3.83
2023-04-25T02:52:20.707Z,4.28
2023-04-25T02:53:08.899Z,4.35
2023-04-25T02:53:56.590Z,4.78
2023-04-25T02:54:39.274Z,4.57
2023-04-25T02:55:20.996Z,4.43
2023-04-25T02:56:03.372Z,4.20
2023-04-25T02:56:44.954Z,4.13
2023-04-25T02:57:31.677Z,4.20
2023-04-25T02:58:13.701Z,4.03
2023-04-25T02:59:00.377Z,3.90
2023-04-25T02:59:42.465Z,4.25
2023-04-25T03:00:24.409Z,3.75
2023-04-25T03:01:06.194Z,4.30
2023-04-25T03:01:47.913Z,3.92
2023-04-25T03:02:29.626Z,4.22
2023-04-25T03:03:11.960Z,4.07
2023-04-25T03:03:54.091Z,4.32
2023-04-25T03:04:35.975Z,4.57
2023-04-25T03:05:18.213Z,4.50
2023-04-25T03:05:59.883Z,4.30
2023-04-25T03:06:46.377Z,3.83
2023-04-25T03:07:28.069Z,4.47
2023-04-25T03:08:09.725Z,4.10
2023-04-25T03:08:53.152Z,4.38
2023-04-25T03:09:34.862Z,3.97
2023-04-25T03:10:16.458Z,3.90
2023-04-25T03:10:58.424Z,4.10
2023-04-25T03:11:40.373Z,4.45
2023-04-25T03:12:22.019Z,4.45
2023-04-25T03:13:03.705Z,4.72
2023-04-25T03:13:45.385Z,4.05
2023-04-25T03:14:27.054Z,4.60
2023-04-25T03:15:09.825Z,3.97
2023-04-25T03:15:51.620Z,4.15
2023-04-25T03:16:34.732Z,4.38
2023-04-25T03:17:17.025Z,4.40
2023-04-25T03:17:58.732Z,4.63
2023-04-25T03:18:40.563Z,4.20
2023-04-25T03:19:22.399Z,4.72
2023-04-25T03:20:05.085Z,4.10
2023-04-25T03:20:47.644Z,4.88
2023-04-25T03:21:29.390Z,4.57
2023-04-25T03:22:13.341Z,4.10
2023-04-25T03:22:55.888Z,4.57
2023-04-25T03:23:37.711Z,4.85
2023-04-25T03:24:19.432Z,4.72
2023-04-25T03:25:01.131Z,4.20
2023-04-25T03:25:43.881Z,4.30
2023-04-25T03:26:25.917Z,4.55
2023-04-25T03:27:07.554Z,4.50
2023-04-25T03:27:49.302Z,5.00
2023-04-25T03:28:30.984Z,5.38
2023-04-25T03:29:12.795Z,5.60
2023-04-25T03:29:57.885Z,4.63
2023-04-25T03:30:39.857Z,5.05
2023-04-25T03:31:21.783Z,5.10
2023-04-25T03:32:03.442Z,5.45
2023-04-25T03:32:45.124Z,5.03
2023-04-25T03:33:30.918Z,5.28
2023-04-25T03:34:12.580Z,5.55
2023-04-25T03:34:54.184Z,5.10
2023-04-25T03:35:36.223Z,4.90
2023-04-25T03:36:18.136Z,5.15
2023-04-25T03:37:00.910Z,5.40
2023-04-25T03:37:46.353Z,5.95
2023-04-25T03:38:32.266Z,5.75
2023-04-25T03:39:14.525Z,5.35
2023-04-25T03:40:00.868Z,4.63
2023-04-25T03:40:54.909Z,5.28
2023-04-25T03:41:48.717Z,5.25
2023-04-25T03:42:32.144Z,5.50
2023-04-25T03:43:13.926Z,5.70
2023-04-25T03:44:01.131Z,5.53
2023-04-25T03:44:42.773Z,5.40
2023-04-25T03:45:24.450Z,5.68
2023-04-25T03:46:06.459Z,5.78
2023-04-25T03:46:48.089Z,5.28
2023-04-25T03:47:30.443Z,5.22
2023-04-25T03:48:12.573Z,5.13
2023-04-25T03:48:54.180Z,5.38
2023-04-25T03:49:40.117Z,4.68
2023-04-25T03:50:22.062Z,5.72
2023-04-25T03:51:03.883Z,5.25
2023-04-25T03:51:47.080Z,5.32
2023-04-25T03:52:28.909Z,5.10
2023-04-25T03:53:10.773Z,5.63
2023-04-25T03:54:12.447Z,5.30
2023-04-25T03:55:25.392Z,5.38
2023-04-25T03:56:07.505Z,5.97
2023-04-25T03:56:51.237Z,5.18
2023-04-25T03:57:36.360Z,5.65
2023-04-25T03:58:17.988Z,5.53
2023-04-25T03:58:59.631Z,5.80
2023-04-25T03:59:43.160Z,6.20
2023-04-25T04:00:27.366Z,5.53
2023-04-25T04:01:09.220Z,5.70
2023-04-25T04:01:53.654Z,5.47
2023-04-25T04:02:36.123Z,5.85
2023-04-25T04:03:18.323Z,5.53
2023-04-25T04:04:00.588Z,5.22
2023-04-25T04:04:45.099Z,5.55
2023-04-25T04:05:27.267Z,6.20
2023-04-25T04:06:11.763Z,6.00
2023-04-25T04:07:00.638Z,5.47
2023-04-25T04:07:45.637Z,5.85
2023-04-25T04:08:28.218Z,5.63
2023-04-25T04:09:11.968Z,6.05
2023-04-25T04:09:54.843Z,5.85
2023-04-25T04:10:42.490Z,5.78
2023-04-25T04:11:24.605Z,6.70
2023-04-25T04:12:06.543Z,6.00
2023-04-25T04:12:49.028Z,6.05
2023-04-25T04:13:30.957Z,6.22
2023-04-25T04:14:12.629Z,6.20
2023-04-25T04:14:58.709Z,6.07
2023-04-25T04:15:40.446Z,6.50
2023-04-25T04:16:22.205Z,5.82
2023-04-25T04:17:03.943Z,5.90
2023-04-25T04:17:46.415Z,6.18
2023-04-25T04:18:28.114Z,6.30
2023-04-25T04:19:11.887Z,6.07
2023-04-25T04:19:56.956Z,6.47
2023-04-25T04:20:38.544Z,6.72
2023-04-25T04:21:22.530Z,6.80
2023-04-25T04:22:04.511Z,7.30
2023-04-25T04:22:46.551Z,6.75
2023-04-25T04:23:29.652Z,6.90
2023-04-25T04:24:12.596Z,5.97
2023-04-25T04:25:08.789Z,5.82
2023-04-25T04:26:10.976Z,6.85
2023-04-25T04:27:02.054Z,6.15
2023-04-25T04:27:55.784Z,6.05
2023-04-25T04:28:55.065Z,6.53
2023-04-25T04:29:54.231Z,6.30
2023-04-25T04:30:42.199Z,6.32
2023-04-25T04:31:24.886Z,6.13
2023-04-25T04:32:06.672Z,6.15
2023-04-25T04:32:50.698Z,6.05
2023-04-25T04:33:32.456Z,6.45
2023-04-25T04:34:19.267Z,6.28
2023-04-25T04:35:00.963Z,6.38
2023-04-25T04:35:43.003Z,6.75
2023-04-25T04:36:27.405Z,6.68
2023-04-25T04:37:10.643Z,6.28
2023-04-25T04:37:52.223Z,5.97
2023-04-25T04:38:35.554Z,6.07
2023-04-25T04:39:18.847Z,5.95
2023-04-25T04:40:12.192Z,5.93
2023-04-25T04:41:12.411Z,6.07
2023-04-25T04:42:12.471Z,6.30
2023-04-25T04:43:20.217Z,6.20
2023-04-25T04:44:33.645Z,6.13
2023-04-25T04:45:28.715Z,6.35
2023-04-25T04:46:25.651Z,6.05
2023-04-25T04:47:26.911Z,5.57
2023-04-25T04:48:29.201Z,5.90
2023-04-25T04:49:34.726Z,5.82
2023-04-25T04:50:36.447Z,5.47
2023-04-25T04:51:56.758Z,5.75
2023-04-25T04:53:18.171Z,5.40
2023-04-25T04:54:05.988Z,6.10
2023-04-25T04:55:13.913Z,6.10
2023-04-25T04:56:06.408Z,5.80
2023-04-25T04:57:06.901Z,6.05
2023-04-25T04:58:07.295Z,5.80
2023-04-25T04:58:58.105Z,5.55
2023-04-25T04:59:48.746Z,5.15
2023-04-25T05:00:56.294Z,5.50
2023-04-25T05:01:49.391Z,5.85
2023-04-25T05:02:39.478Z,5.45
2023-04-25T05:03:41.993Z,4.68
2023-04-25T05:04:39.333Z,5.18
2023-04-25T05:05:35.402Z,4.60
2023-04-25T05:06:39.442Z,5.05
2023-04-25T05:07:50.381Z,5.18
2023-04-25T05:08:50.431Z,5.32
2023-04-25T05:09:51.423Z,4.80
2023-04-25T05:10:47.753Z,4.78
2023-04-25T05:11:39.002Z,4.80
2023-04-25T05:12:34.666Z,4.90
2023-04-25T05:13:37.930Z,5.20
2023-04-25T05:14:49.001Z,5.30
2023-04-25T05:15:49.518Z,5.68
2023-04-25T05:16:57.340Z,5.72
2023-04-25T05:17:59.340Z,5.53
2023-04-25T05:18:41.396Z,5.32
2023-04-25T05:19:37.215Z,5.18
2023-04-25T05:20:38.979Z,5.45
2023-04-25T05:21:32.263Z,4.65
2023-04-25T05:22:30.459Z,5.22
2023-04-25T05:23:33.352Z,5.75
2023-04-25T05:24:40.429Z,5.47
2023-04-25T05:25:40.631Z,5.18
2023-04-25T05:26:42.521Z,5.70
2023-04-25T05:27:38.152Z,6.40
2023-04-25T05:28:44.133Z,6.47
2023-04-25T05:29:52.621Z,6.93
2023-04-25T05:30:48.345Z,6.68
2023-04-25T05:31:33.606Z,6.40
2023-04-25T05:32:19.681Z,5.97
2023-04-25T05:33:02.868Z,5.82
2023-04-25T05:33:44.649Z,5.40
2023-04-25T05:34:26.911Z,5.38
2023-04-25T05:35:17.554Z,5.57
2023-04-25T05:36:02.721Z,5.30
2023-04-25T05:36:44.490Z,5.00
2023-04-25T05:37:26.119Z,5.68
2023-04-25T05:38:11.594Z,5.38
2023-04-25T05:39:13.562Z,5.28
2023-04-25T05:40:13.994Z,5.80
2023-04-25T05:41:21.978Z,5.78
2023-04-25T05:42:04.763Z,6.65
2023-04-25T05:42:58.385Z,6.70
2023-04-25T05:44:12.181Z,6.72
2023-04-25T05:44:59.360Z,7.10
2023-04-25T05:46:01.355Z,6.35
2023-04-25T05:46:56.422Z,6.50
2023-04-25T05:48:07.556Z,7.30
2023-04-25T05:49:07.993Z,6.10
2023-04-25T05:49:58.828Z,5.68
2023-04-25T05:50:57.757Z,5.50
2023-04-25T05:51:57.963Z,5.53
2023-04-25T05:52:58.269Z,6.30
2023-04-25T05:53:45.755Z,5.93
2023-04-25T05:54:28.900Z,6.10
2023-04-25T05:55:11.579Z,5.68
2023-04-25T05:55:53.879Z,5.40
2023-04-25T05:56:41.344Z,5.22
2023-04-25T05:57:27.226Z,5.70
2023-04-25T05:58:10.894Z,5.20
2023-04-25T05:58:52.653Z,5.35
2023-04-25T05:59:34.417Z,6.15
2023-04-25T06:00:16.920Z,6.00
2023-04-25T06:01:00.545Z,6.25
2023-04-25T06:01:42.899Z,5.93
2023-04-25T06:02:24.708Z,5.97
2023-04-25T06:03:08.902Z,6.10
2023-04-25T06:03:52.689Z,6.78
2023-04-25T06:04:35.017Z,6.35
2023-04-25T06:05:17.721Z,7.43
2023-04-25T06:06:01.477Z,6.38
2023-04-25T06:06:43.073Z,5.95
2023-04-25T06:07:24.657Z,5.85
2023-04-25T06:08:06.236Z,5.22
2023-04-25T06:08:47.877Z,5.78
2023-04-25T06:09:29.460Z,5.55
2023-04-25T06:10:11.227Z,5.22
2023-04-25T06:10:53.819Z,5.32
2023-04-25T06:11:35.405Z,4.85
2023-04-25T06:12:18.557Z,5.80
2023-04-25T06:13:00.370Z,5.22
2023-04-25T06:13:42.138Z,5.03
2023-04-25T06:14:28.250Z,6.72
2023-04-25T06:15:24.301Z,6.32
2023-04-25T06:16:09.657Z,8.10
2023-04-25T06:16:51.507Z,10.05
2023-04-25T06:17:33.771Z,9.43
2023-04-25T06:18:15.846Z,8.30
2023-04-25T06:18:57.736Z,7.80
2023-04-25T06:19:39.384Z,7.40
2023-04-25T06:20:24.211Z,6.90
2023-04-25T06:21:06.784Z,6.65
2023-04-25T06:21:48.598Z,6.57
2023-04-25T06:22:30.265Z,6.72
2023-04-25T06:23:12.130Z,6.50
2023-04-25T06:24:20.065Z,6.45
2023-04-25T06:25:01.888Z,6.63
2023-04-25T06:25:44.612Z,7.20
2023-04-25T06:26:26.460Z,7.13
2023-04-25T06:27:08.060Z,7.10
2023-04-25T06:27:49.835Z,6.85
2023-04-25T06:28:31.877Z,7.70
2023-04-25T06:29:13.501Z,7.93
2023-04-25T06:29:55.204Z,7.30
2023-04-25T06:30:36.884Z,8.25
2023-04-25T06:31:23.134Z,8.18
2023-04-25T06:32:06.093Z,7.95
2023-04-25T06:32:47.780Z,7.32
2023-04-25T06:33:29.610Z,7.32
2023-04-25T06:34:12.030Z,7.68
2023-04-25T06:34:55.809Z,7.75
2023-04-25T06:35:37.563Z,7.13
2023-04-25T06:36:25.786Z,7.03
2023-04-25T06:37:09.622Z,7.07
2023-04-25T06:37:51.387Z,7.90
2023-04-25T06:38:37.120Z,7.88
2023-04-25T06:39:18.770Z,7.38
2023-04-25T06:40:00.458Z,8.55
2023-04-25T06:40:42.152Z,8.85
2023-04-25T06:41:24.981Z,9.25
2023-04-25T06:42:06.625Z,8.55
2023-04-25T06:43:07.181Z,8.18
2023-04-25T06:44:08.495Z,7.95
2023-04-25T06:44:55.056Z,8.52
2023-04-25T06:45:37.213Z,7.82
2023-04-25T06:46:19.387Z,7.32
2023-04-25T06:47:03.023Z,7.40
2023-04-25T06:47:45.342Z,7.43
2023-04-25T06:48:28.282Z,7.05
2023-04-25T06:49:09.945Z,7.20
2023-04-25T06:49:51.811Z,7.43
2023-04-25T06:50:34.632Z,7.15
2023-04-25T06:51:16.250Z,6.78
2023-04-25T06:51:59.342Z,8.27
2023-04-25T06:52:41.080Z,8.32
2023-04-25T06:53:22.733Z,7.32
2023-04-25T06:54:10.302Z,7.63
2023-04-25T06:55:02.068Z,7.28
2023-04-25T06:55:59.544Z,7.25
2023-04-25T06:57:00.728Z,7.13
2023-04-25T06:57:45.885Z,8.20
2023-04-25T06:58:48.026Z,7.38
2023-04-25T06:59:37.331Z,7.82
2023-04-25T07:00:19.726Z,7.60
2023-04-25T07:01:01.490Z,7.10
2023-04-25T07:01:43.275Z,7.60
2023-04-25T07:02:30.607Z,7.70
2023-04-25T07:03:13.542Z,7.40
2023-04-25T07:03:55.526Z,7.70
2023-04-25T07:04:38.533Z,7.65
2023-04-25T07:05:20.426Z,7.60
2023-04-25T07:06:02.296Z,7.30
2023-04-25T07:06:44.570Z,7.97
2023-04-25T07:07:28.141Z,7.88
2023-04-25T07:08:12.624Z,8.07
2023-04-25T07:08:55.057Z,8.10
2023-04-25T07:09:36.728Z,8.10
2023-04-25T07:10:18.408Z,7.80
2023-04-25T07:11:00.049Z,8.02
2023-04-25T07:11:41.700Z,8.43
2023-04-25T07:12:23.436Z,7.50
2023-04-25T07:13:05.046Z,7.68
2023-04-25T07:13:46.673Z,8.00
2023-04-25T07:14:28.916Z,7.93
2023-04-25T07:15:12.503Z,7.50
2023-04-25T07:15:57.413Z,7.85
2023-04-25T07:16:39.390Z,8.07
2023-04-25T07:17:20.976Z,8.25
2023-04-25T07:18:02.632Z,8.57
2023-04-25T07:18:44.353Z,8.90
2023-04-25T07:19:27.563Z,8.68
2023-04-25T07:20:12.244Z,8.07
2023-04-25T07:20:54.099Z,8.85
2023-04-25T07:21:37.300Z,8.40
2023-04-25T07:22:19.666Z,8.55
2023-04-25T07:23:01.594Z,8.98
2023-04-25T07:23:43.284Z,9.57
2023-04-25T07:24:29.749Z,8.55
2023-04-25T07:25:12.590Z,8.00
2023-04-25T07:25:54.266Z,8.38
2023-04-25T07:26:38.386Z,8.70
2023-04-25T07:27:32.778Z,7.90
2023-04-25T07:28:34.473Z,7.97
2023-04-25T07:29:17.388Z,8.05
2023-04-25T07:29:59.092Z,8.27
2023-04-25T07:30:40.810Z,8.15
2023-04-25T07:31:23.726Z,8.10
2023-04-25T07:32:05.685Z,7.90
2023-04-25T07:32:47.488Z,7.80
2023-04-25T07:33:29.842Z,7.60
2023-04-25T07:34:11.844Z,7.93
2023-04-25T07:34:54.128Z,8.15
2023-04-25T07:35:35.955Z,8.38
2023-04-25T07:36:17.614Z,9.43
2023-04-25T07:37:00.416Z,8.70
2023-04-25T07:37:47.416Z,8.55
2023-04-25T07:38:32.893Z,8.02
2023-04-25T07:39:14.810Z,9.00
2023-04-25T07:39:56.973Z,9.18
2023-04-25T07:40:38.698Z,8.50
2023-04-25T07:41:45.024Z,8.32
2023-04-25T07:42:33.287Z,7.70
2023-04-25T07:43:17.525Z,7.95
2023-04-25T07:44:09.062Z,7.55
2023-04-25T07:44:52.559Z,7.47
2023-04-25T07:45:34.641Z,7.93
2023-04-25T07:46:17.000Z,8.55
2023-04-25T07:46:58.850Z,8.23
2023-04-25T07:47:40.721Z,8.02
2023-04-25T07:48:22.554Z,7.97
2023-04-25T07:49:07.073Z,8.20
2023-04-25T07:49:49.322Z,8.52
2023-04-25T07:50:31.540Z,8.52
2023-04-25T07:51:13.390Z,8.15
2023-04-25T07:51:55.733Z,8.40
2023-04-25T07:52:38.662Z,7.88
2023-04-25T07:53:33.459Z,7.45
2023-04-25T07:54:19.235Z,7.80
2023-04-25T07:55:06.353Z,7.90
2023-04-25T07:55:57.563Z,7.95
2023-04-25T07:56:49.594Z,8.15
2023-04-25T07:57:34.533Z,8.70
2023-04-25T07:58:17.093Z,7.95
2023-04-25T07:59:01.631Z,7.85
2023-04-25T07:59:43.686Z,7.93
2023-04-25T08:00:25.693Z,8.07
2023-04-25T08:01:21.683Z,8.55
2023-04-25T08:02:12.941Z,8.63
2023-04-25T08:02:54.912Z,7.75
2023-04-25T08:03:36.910Z,9.40
2023-04-25T08:04:23.723Z,8.95
2023-04-25T08:05:12.948Z,8.90
2023-04-25T08:05:56.599Z,8.88
2023-04-25T08:06:40.200Z,9.05
2023-04-25T08:07:30.457Z,9.13
2023-04-25T08:08:17.073Z,9.25
2023-04-25T08:08:58.776Z,9.13
2023-04-25T08:09:48.058Z,9.00
2023-04-25T08:10:37.992Z,9.23
2023-04-25T08:11:19.748Z,9.57
2023-04-25T08:12:01.988Z,9.88
2023-04-25T08:12:46.896Z,9.63
2023-04-25T08:13:28.568Z,8.80
2023-04-25T08:14:10.575Z,8.75
2023-04-25T08:14:54.192Z,9.10
2023-04-25T08:15:36.046Z,8.20
2023-04-25T08:16:17.829Z,8.90
2023-04-25T08:16:59.553Z,9.10
2023-04-25T08:17:56.276Z,9.45
2023-04-25T08:18:41.045Z,9.65
2023-04-25T08:19:23.107Z,8.98
2023-04-25T08:20:06.765Z,8.70
2023-04-25T08:20:49.678Z,9.50
2023-04-25T08:21:32.379Z,9.73
2023-04-25T08:22:16.816Z,9.57
2023-04-25T08:23:16.149Z,10.32
2023-04-25T08:24:09.556Z,12.90
2023-04-25T08:24:53.782Z,11.35
2023-04-25T08:25:35.665Z,11.48
2023-04-25T08:26:17.816Z,10.50
2023-04-25T08:26:59.950Z,11.82
2023-04-25T08:27:44.468Z,10.77
2023-04-25T08:28:26.721Z,11.00
2023-04-25T08:29:09.139Z,9.85
2023-04-25T08:29:54.183Z,10.68
2023-04-25T08:30:36.212Z,10.40
2023-04-25T08:31:18.596Z,10.18
2023-04-25T08:32:10.260Z,10.73
2023-04-25T08:32:57.164Z,10.38
2023-04-25T08:34:12.028Z,10.35
2023-04-25T08:34:58.646Z,10.02
2023-04-25T08:35:41.366Z,10.27
2023-04-25T08:36:37.664Z,11.43
2023-04-25T08:37:29.526Z,10.93
2023-04-25T08:38:16.286Z,10.82
2023-04-25T08:38:59.304Z,17.60
2023-04-25T08:39:41.105Z,11.93
2023-04-25T08:40:41.729Z,8.02
2023-04-25T08:41:31.127Z,8.02
2023-04-25T08:42:13.289Z,7.30
2023-04-25T08:42:56.635Z,7.25
2023-04-25T08:43:38.834Z,7.10
2023-04-25T08:44:21.180Z,6.45
2023-04-25T08:45:06.935Z,6.65
2023-04-25T08:45:54.800Z,6.15
2023-04-25T08:46:50.988Z,6.72
2023-04-25T08:47:47.422Z,6.57
2023-04-25T08:48:32.108Z,6.50
2023-04-25T08:49:13.844Z,7.05
2023-04-25T08:49:56.950Z,7.72
2023-04-25T08:50:45.122Z,7.65
2023-04-25T08:51:28.990Z,8.25
2023-04-25T08:52:12.235Z,5.82
2023-04-25T08:52:54.934Z,4.70
2023-04-25T08:53:38.501Z,5.43
2023-04-25T08:54:34.761Z,4.45
2023-04-25T08:55:18.071Z,4.32
2023-04-25T08:56:02.734Z,4.65
2023-04-25T08:56:49.161Z,4.05
2023-04-25T08:57:32.245Z,4.32
2023-04-25T08:58:14.174Z,3.70
2023-04-25T08:58:56.986Z,4.15
2023-04-25T08:59:41.544Z,3.75
2023-04-25T09:00:23.900Z,4.10
2023-04-25T09:01:05.685Z,4.60
2023-04-25T09:01:53.864Z,5.07
2023-04-25T09:02:37.189Z,5.00
2023-04-25T09:03:19.548Z,4.65
2023-04-25T09:04:03.433Z,5.90
2023-04-25T09:04:45.733Z,6.03
2023-04-25T09:05:29.741Z,5.93
2023-04-25T09:06:14.359Z,5.68
2023-04-25T09:06:57.275Z,5.80
2023-04-25T09:07:39.177Z,7.55
2023-04-25T09:08:21.397Z,7.60
2023-04-25T09:09:06.280Z,7.63
2023-04-25T09:09:48.304Z,7.50
2023-04-25T09:10:33.493Z,8.02
2023-04-25T09:11:15.909Z,8.65
2023-04-25T09:11:58.321Z,8.38
2023-04-25T09:12:41.741Z,9.93
2023-04-25T09:13:28.625Z,9.07
2023-04-25T09:14:32.523Z,9.55
2023-04-25T09:15:20.367Z,9.55
2023-04-25T09:16:22.606Z,8.85
2023-04-25T09:17:23.181Z,9.05
2023-04-25T09:18:08.537Z,9.35
2023-04-25T09:18:57.498Z,10.20
2023-04-25T09:19:42.161Z,10.70
2023-04-25T09:20:59.701Z,9.90
2023-04-25T09:21:42.789Z,9.90
2023-04-25T09:22:24.927Z,9.88
2023-04-25T09:23:08.095Z,9.93
2023-04-25T09:23:52.870Z,9.30
2023-04-25T09:24:42.626Z,9.90
2023-04-25T09:25:26.129Z,9.10
2023-04-25T09:26:09.186Z,8.82
2023-04-25T09:26:50.854Z,7.68
2023-04-25T09:27:32.576Z,7.65
2023-04-25T09:28:32.057Z,7.55
2023-04-25T09:29:16.294Z,7.18
2023-04-25T09:30:02.704Z,7.68
2023-04-25T09:31:01.030Z,7.78
2023-04-25T09:31:48.584Z,6.82
2023-04-25T09:32:30.549Z,6.88
2023-04-25T09:33:13.765Z,7.30
2023-04-25T09:34:03.745Z,6.40
2023-04-25T09:34:56.645Z,6.90
2023-04-25T09:35:41.041Z,7.05
2023-04-25T09:36:28.422Z,6.60
2023-04-25T09:37:41.373Z,7.28
2023-04-25T09:38:56.071Z,6.25
2023-04-25T09:39:48.884Z,5.45
2023-04-25T09:40:31.654Z,6.22
2023-04-25T09:41:26.072Z,5.45
2023-04-25T09:42:10.345Z,5.10
2023-04-25T09:42:52.040Z,4.70
2023-04-25T09:43:33.772Z,5.32
2023-04-25T09:44:15.537Z,5.47
2023-04-25T09:44:59.972Z,4.95
2023-04-25T09:45:46.700Z,5.40
2023-04-25T09:46:35.679Z,5.28
2023-04-25T09:47:18.780Z,4.43
2023-04-25T09:48:07.114Z,3.90
2023-04-25T09:48:52.077Z,4.25
2023-04-25T09:49:43.183Z,3.88
2023-04-25T09:50:26.937Z,4.22
2023-04-25T09:51:18.362Z,4.10
2023-04-25T09:52:01.808Z,3.80
2023-04-25T09:53:06.471Z,4.30
2023-04-25T09:54:04.361Z,3.65
2023-04-25T09:54:56.532Z,2.75
2023-04-25T09:55:47.200Z,3.60
2023-04-25T09:56:33.950Z,3.15
2023-04-25T09:57:17.539Z,3.00
2023-04-25T09:58:06.637Z,3.05
2023-04-25T09:58:50.703Z,3.38
2023-04-25T09:59:34.031Z,3.20
2023-04-25T10:00:16.007Z,2.70
2023-04-25T10:01:01.452Z,3.28
2023-04-25T10:01:54.477Z,3.40
2023-04-25T10:02:46.470Z,3.40
2023-04-25T10:03:41.286Z,3.17
2023-04-25T10:04:52.450Z,3.55
2023-04-25T10:05:38.878Z,3.20
2023-04-25T10:06:23.490Z,3.60
2023-04-25T10:07:09.194Z,3.33
2023-04-25T10:07:52.819Z,3.17
2023-04-25T10:08:37.101Z,2.88